Time;durP1;ratioP1;P1;durP2;ratioP2;P2;SDS_P1;SDS_P2;PMS_P1;PMS_P2;Temp;Humidity;BMP_temperature;BMP_pressure;BME280_temperature;BME280_humidity;BME280_pressure;Samples;Min_cycle;Max_cycle;Signal;HPM_P1;HPM_P2
2020/12/30 00:00:58;;;;;;;4.10;3.60;;;3.70;98.90;;;;;;5093373;28;20631;-81
2020/12/30 00:03:24;;;;;;;3.00;2.80;;;3.70;98.90;;;;;;5088884;28;20195;-82
2020/12/30 00:05:51;;;;;;;3.33;3.08;;;3.70;98.70;;;;;;5088480;28;20206;-81
2020/12/30 00:08:17;;;;;;;4.03;3.00;;;3.70;98.80;;;;;;5075173;28;20638;-82
2020/12/30 00:10:44;;;;;;;4.28;3.75;;;3.70;98.80;;;;;;5087145;28;20202;-81
2020/12/30 00:13:11;;;;;;;3.83;3.53;;;3.70;98.70;;;;;;5090455;28;20202;-82
2020/12/30 00:15:37;;;;;;;3.45;3.15;;;3.80;98.90;;;;;;5080637;28;20194;-82
2020/12/30 00:18:04;;;;;;;3.55;3.17;;;3.80;98.70;;;;;;5092727;28;20242;-82
2020/12/30 00:20:30;;;;;;;4.60;3.55;;;3.80;98.70;;;;;;5095552;28;20233;-82
2020/12/30 00:22:57;;;;;;;4.07;3.20;;;3.90;98.70;;;;;;5092207;28;20202;-82
2020/12/30 00:25:23;;;;;;;4.00;3.13;;;3.80;98.70;;;;;;5075240;28;20222;-82
2020/12/30 00:27:50;;;;;;;3.47;3.17;;;3.80;98.50;;;;;;5079786;28;20231;-82
2020/12/30 00:30:18;;;;;;;5.80;3.38;;;3.80;98.60;;;;;;5075412;28;20199;-82
2020/12/30 00:32:46;;;;;;;3.63;3.20;;;3.90;98.50;;;;;;5082576;28;20639;-82
2020/12/30 00:35:13;;;;;;;3.13;2.90;;;3.80;98.40;;;;;;5094302;28;20676;-81
2020/12/30 00:37:40;;;;;;;3.67;3.38;;;3.70;98.80;;;;;;5077815;28;20210;-82
2020/12/30 00:40:06;;;;;;;3.53;2.80;;;3.70;98.70;;;;;;5085003;28;20207;-82
2020/12/30 00:42:34;;;;;;;3.20;2.80;;;3.60;98.70;;;;;;5109739;28;20202;-81
2020/12/30 00:45:01;;;;;;;3.28;2.97;;;3.70;98.80;;;;;;5079958;28;20191;-81
2020/12/30 00:47:29;;;;;;;3.70;3.40;;;3.60;98.80;;;;;;5080770;28;20931;-81
2020/12/30 00:49:55;;;;;;;3.80;3.40;;;3.50;98.80;;;;;;5077816;28;20199;-81
2020/12/30 00:52:22;;;;;;;4.25;3.85;;;3.50;99.00;;;;;;5094430;28;20237;-81
2020/12/30 00:54:48;;;;;;;4.72;3.55;;;3.50;99.00;;;;;;5077641;28;20238;-81
2020/12/30 00:57:14;;;;;;;3.92;3.63;;;3.50;99.20;;;;;;5077087;28;20655;-81
2020/12/30 00:59:41;;;;;;;3.88;3.20;;;3.50;99.00;;;;;;5092632;28;20227;-82
2020/12/30 01:02:07;;;;;;;4.20;3.80;;;3.30;98.60;;;;;;5090914;28;20234;-81
2020/12/30 01:04:35;;;;;;;3.67;3.38;;;3.40;99.10;;;;;;5087859;28;20191;-83
2020/12/30 01:07:01;;;;;;;11.13;3.85;;;3.40;99.10;;;;;;5092995;28;20267;-81
2020/12/30 01:09:28;;;;;;;4.25;3.85;;;3.50;99.00;;;;;;5087083;28;20209;-82
2020/12/30 01:11:55;;;;;;;3.90;3.20;;;3.50;99.00;;;;;;5081729;28;20361;-81
2020/12/30 01:14:22;;;;;;;3.92;3.63;;;3.50;99.10;;;;;;5077392;28;20204;-81
2020/12/30 01:16:49;;;;;;;4.90;3.83;;;3.60;99.00;;;;;;5079652;28;20562;-82
2020/12/30 01:19:16;;;;;;;3.67;3.38;;;3.60;99.00;;;;;;5084623;28;20311;-82
2020/12/30 01:21:43;;;;;;;3.92;3.63;;;3.60;99.10;;;;;;5078035;28;20187;-81
2020/12/30 01:24:10;;;;;;;3.30;2.97;;;3.70;99.00;;;;;;5091773;28;20714;-81
2020/12/30 01:26:36;;;;;;;3.13;2.88;;;3.70;98.80;;;;;;5074207;28;20192;-82
2020/12/30 01:29:04;;;;;;;3.20;2.90;;;3.70;99.10;;;;;;5085667;28;20221;-81
2020/12/30 01:31:31;;;;;;;4.22;3.72;;;3.60;98.90;;;;;;5093677;28;20191;-81
2020/12/30 01:33:58;;;;;;;3.40;3.10;;;3.60;98.90;;;;;;5082215;28;20252;-81
2020/12/30 01:36:24;;;;;;;3.25;3.05;;;3.70;98.90;;;;;;5072820;28;20195;-80
2020/12/30 01:38:52;;;;;;;4.55;4.15;;;3.60;98.80;;;;;;5082398;28;20207;-81
2020/12/30 01:41:19;;;;;;;3.75;3.45;;;3.60;99.00;;;;;;5089571;28;20195;-81
2020/12/30 01:43:59;;;;;;;4.72;3.47;;;3.60;99.00;;;;;;5092599;28;20252;-81
2020/12/30 01:46:34;;;;;;;3.63;3.33;;;3.60;98.90;;;;;;5111200;28;20201;-81
2020/12/30 01:49:01;;;;;;;4.35;3.95;;;3.60;98.70;;;;;;5091900;28;20617;-81
2020/12/30 01:51:29;;;;;;;3.25;3.05;;;3.60;98.60;;;;;;5081279;28;20648;-81
2020/12/30 01:53:56;;;;;;;4.43;4.00;;;3.60;98.90;;;;;;5076101;28;20226;-82
2020/12/30 01:56:27;;;;;;;4.40;4.03;;;3.60;98.80;;;;;;5081024;28;20205;-81
2020/12/30 01:58:53;;;;;;;4.35;3.28;;;3.60;98.80;;;;;;5082235;28;20195;-82
2020/12/30 02:01:22;;;;;;;3.88;3.50;;;3.60;98.80;;;;;;5079187;28;20199;-81
2020/12/30 02:03:54;;;;;;;4.03;2.75;;;3.60;99.10;;;;;;5087486;28;20607;-81
2020/12/30 02:06:23;;;;;;;3.33;3.03;;;3.70;99.00;;;;;;5090219;28;20213;-82
2020/12/30 02:08:53;;;;;;;3.38;3.15;;;3.70;98.80;;;;;;5088396;28;20198;-81
2020/12/30 02:11:26;;;;;;;3.28;2.97;;;3.80;98.70;;;;;;5079834;28;20620;-81
2020/12/30 02:14:02;;;;;;;4.55;3.63;;;3.80;98.60;;;;;;5077214;28;20195;-82
2020/12/30 02:16:29;;;;;;;4.10;3.70;;;3.80;98.40;;;;;;5085437;28;20203;-82
2020/12/30 02:19:07;;;;;;;3.78;3.47;;;3.80;98.50;;;;;;5084592;28;20215;-81
2020/12/30 02:21:34;;;;;;;3.67;3.38;;;3.80;98.50;;;;;;5081923;28;20198;-81
2020/12/30 02:24:02;;;;;;;3.38;3.08;;;3.80;98.50;;;;;;5082194;28;20191;-82
2020/12/30 02:26:30;;;;;;;4.05;2.83;;;3.70;98.30;;;;;;5088991;28;20190;-81
2020/12/30 02:28:59;;;;;;;3.30;2.72;;;3.70;98.80;;;;;;5080128;28;20195;-82
2020/12/30 02:31:28;;;;;;;3.65;3.35;;;3.70;98.60;;;;;;5073465;28;20196;-82
2020/12/30 02:33:55;;;;;;;2.80;2.47;;;3.70;98.50;;;;;;5084652;28;20638;-81
2020/12/30 02:36:23;;;;;;;4.18;2.90;;;3.80;98.70;;;;;;5093255;28;20246;-81
2020/12/30 02:38:54;;;;;;;3.00;2.70;;;3.70;98.60;;;;;;5083096;28;20223;-81
2020/12/30 02:41:21;;;;;;;3.90;2.85;;;3.60;98.50;;;;;;5075891;28;20190;-81
2020/12/30 02:43:50;;;;;;;3.05;2.80;;;3.70;99.00;;;;;;5087979;28;20542;-81
2020/12/30 02:46:17;;;;;;;4.82;2.72;;;3.60;99.00;;;;;;5073487;28;20561;-81
2020/12/30 02:48:44;;;;;;;4.18;3.17;;;3.60;99.00;;;;;;5087628;28;20187;-82
2020/12/30 02:51:11;;;;;;;2.55;2.33;;;3.70;98.90;;;;;;5086232;28;20199;-82
2020/12/30 02:53:37;;;;;;;3.72;3.25;;;3.80;99.00;;;;;;5076400;28;20212;-82
2020/12/30 02:56:03;;;;;;;3.10;2.72;;;3.80;98.70;;;;;;5092572;28;20213;-82
2020/12/30 02:58:30;;;;;;;5.15;2.80;;;3.80;98.60;;;;;;5091682;28;20651;-82
2020/12/30 03:00:57;;;;;;;3.70;2.83;;;3.70;98.60;;;;;;5092402;28;20226;-82
2020/12/30 03:03:24;;;;;;;2.53;2.30;;;3.80;98.90;;;;;;5092173;28;20194;-82
2020/12/30 03:05:51;;;;;;;3.15;2.85;;;3.80;98.70;;;;;;5083544;28;20548;-82
2020/12/30 03:08:17;;;;;;;5.00;2.75;;;3.70;98.50;;;;;;5076716;28;20664;-82
2020/12/30 03:10:44;;;;;;;3.72;2.90;;;3.70;98.70;;;;;;5092057;28;20560;-81
2020/12/30 03:13:10;;;;;;;3.13;2.40;;;3.80;98.80;;;;;;5088870;28;20195;-82
2020/12/30 03:15:36;;;;;;;3.83;3.20;;;3.80;98.70;;;;;;5089887;28;20195;-82
2020/12/30 03:18:04;;;;;;;4.47;2.38;;;3.80;98.40;;;;;;5088170;28;20198;-81
2020/12/30 03:20:30;;;;;;;2.75;2.55;;;3.80;98.60;;;;;;5071499;28;20215;-82
2020/12/30 03:22:56;;;;;;;4.13;2.72;;;3.90;98.80;;;;;;5083024;28;20546;-81
2020/12/30 03:25:23;;;;;;;2.30;2.10;;;3.90;98.60;;;;;;5082923;28;20211;-81
2020/12/30 03:27:49;;;;;;;5.60;3.05;;;3.80;98.40;;;;;;5077144;28;20558;-81
2020/12/30 03:30:16;;;;;;;4.97;2.92;;;3.80;98.60;;;;;;5071557;28;20196;-82
2020/12/30 03:32:42;;;;;;;3.15;2.95;;;3.90;98.60;;;;;;5074403;28;20601;-81
2020/12/30 03:35:09;;;;;;;3.15;2.88;;;3.80;98.40;;;;;;5071217;28;20199;-82
2020/12/30 03:37:36;;;;;;;3.92;3.10;;;3.70;98.50;;;;;;5074131;28;20505;-81
2020/12/30 03:40:03;;;;;;;3.17;2.83;;;3.70;98.60;;;;;;5071499;28;20227;-82
2020/12/30 03:42:29;;;;;;;4.68;2.47;;;3.80;98.60;;;;;;5074492;28;20210;-82
2020/12/30 03:44:55;;;;;;;2.45;2.25;;;3.80;98.40;;;;;;5084642;28;20260;-81
2020/12/30 03:47:22;;;;;;;2.70;2.50;;;3.60;98.20;;;;;;5087714;28;20199;-82
2020/12/30 03:49:48;;;;;;;2.90;2.50;;;3.50;98.40;;;;;;5072178;28;20199;-81
2020/12/30 03:52:17;;;;;;;3.08;2.88;;;3.50;98.70;;;;;;5073116;28;20256;-82
2020/12/30 03:54:43;;;;;;;3.10;2.80;;;3.40;98.80;;;;;;5093250;28;20200;-81
2020/12/30 03:57:10;;;;;;;4.00;2.42;;;3.40;99.30;;;;;;5111381;28;20598;-81
2020/12/30 03:59:36;;;;;;;3.00;2.38;;;3.30;98.80;;;;;;5078596;28;20230;-82
2020/12/30 04:02:02;;;;;;;3.40;3.10;;;3.40;98.90;;;;;;5071694;28;20207;-82
2020/12/30 04:04:29;;;;;;;2.78;2.58;;;3.30;99.00;;;;;;5078746;28;20632;-81
2020/12/30 04:06:55;;;;;;;2.92;2.63;;;3.30;98.90;;;;;;5091951;28;20194;-81
2020/12/30 04:09:22;;;;;;;2.28;2.00;;;3.30;98.70;;;;;;5090638;28;20206;-81
2020/12/30 04:11:49;;;;;;;2.35;2.15;;;3.30;98.70;;;;;;5081539;28;20199;-81
2020/12/30 04:14:15;;;;;;;2.42;2.22;;;3.30;98.60;;;;;;5080452;28;20221;-81
2020/12/30 04:16:42;;;;;;;2.05;1.95;;;3.40;98.70;;;;;;5092194;28;20199;-81
2020/12/30 04:19:08;;;;;;;3.28;2.97;;;3.40;98.60;;;;;;5083369;28;20198;-81
2020/12/30 04:21:35;;;;;;;3.00;2.25;;;3.30;98.60;;;;;;5085348;28;20234;-81
2020/12/30 04:24:01;;;;;;;1.90;1.80;;;3.40;98.40;;;;;;5072006;28;20567;-81
2020/12/30 04:26:28;;;;;;;2.40;2.20;;;3.40;98.40;;;;;;5089339;28;20195;-81
2020/12/30 04:28:55;;;;;;;2.95;2.17;;;3.30;98.30;;;;;;5091385;28;20671;-81
2020/12/30 04:31:21;;;;;;;1.83;1.73;;;3.20;98.30;;;;;;5095426;28;21037;-81
2020/12/30 04:33:48;;;;;;;6.95;2.60;;;3.10;98.40;;;;;;5088612;28;20205;-81
2020/12/30 04:36:14;;;;;;;2.50;1.90;;;3.00;98.60;;;;;;5095281;28;20202;-81
2020/12/30 04:38:41;;;;;;;1.80;1.70;;;3.00;98.70;;;;;;5091336;28;20191;-81
2020/12/30 04:41:10;;;;;;;2.30;2.10;;;2.90;98.70;;;;;;5095260;28;20264;-81
2020/12/30 04:43:38;;;;;;;4.53;2.55;;;2.70;98.80;;;;;;5085142;28;20217;-82
2020/12/30 04:46:05;;;;;;;2.03;1.90;;;2.80;99.40;;;;;;5094614;28;20191;-81
2020/12/30 04:48:33;;;;;;;4.07;2.63;;;2.90;99.40;;;;;;5085999;28;20308;-81
2020/12/30 04:51:00;;;;;;;3.15;2.00;;;2.90;99.50;;;;;;5094807;28;20202;-82
2020/12/30 04:53:28;;;;;;;2.03;1.80;;;3.00;99.50;;;;;;5091128;28;20668;-81
2020/12/30 04:55:59;;;;;;;1.58;1.48;;;3.10;99.20;;;;;;5094215;28;20199;-81
2020/12/30 04:58:28;;;;;;;1.70;1.60;;;3.00;99.10;;;;;;5087232;28;20191;-81
2020/12/30 05:00:56;;;;;;;1.77;1.67;;;3.00;99.10;;;;;;5101708;28;20226;-82
2020/12/30 05:03:28;;;;;;;3.10;2.00;;;3.00;99.00;;;;;;5103685;28;20484;-81
2020/12/30 05:05:55;;;;;;;3.22;2.70;;;3.10;99.50;;;;;;5085677;28;20741;-81
2020/12/30 05:08:22;;;;;;;2.22;2.13;;;3.10;99.10;;;;;;5081343;28;20550;-81
2020/12/30 05:10:52;;;;;;;1.73;1.63;;;3.20;99.00;;;;;;5089117;28;20222;-81
2020/12/30 05:13:19;;;;;;;3.25;2.17;;;3.10;98.90;;;;;;5082294;28;20190;-81
2020/12/30 05:15:45;;;;;;;2.88;1.75;;;3.10;99.10;;;;;;5077135;28;20204;-81
2020/12/30 05:18:13;;;;;;;3.15;1.75;;;3.20;99.20;;;;;;5074356;28;20239;-81
2020/12/30 05:20:39;;;;;;;2.80;2.00;;;3.30;99.20;;;;;;5073974;28;20257;-81
2020/12/30 05:23:06;;;;;;;1.92;1.83;;;3.30;98.80;;;;;;5088826;28;20686;-82
2020/12/30 05:25:35;;;;;;;2.10;1.60;;;3.50;98.90;;;;;;5083805;28;20217;-81
2020/12/30 05:28:04;;;;;;;2.45;2.25;;;3.30;98.80;;;;;;5089556;28;20210;-81
2020/12/30 05:30:31;;;;;;;3.83;1.60;;;3.30;98.80;;;;;;5093363;28;20604;-81
2020/12/30 05:32:58;;;;;;;2.83;1.80;;;3.20;98.70;;;;;;5093118;28;20202;-81
2020/12/30 05:35:26;;;;;;;1.75;1.40;;;3.10;98.80;;;;;;5074247;28;20292;-81
2020/12/30 05:37:52;;;;;;;1.98;1.88;;;3.20;98.90;;;;;;5077128;28;20199;-81
2020/12/30 05:40:20;;;;;;;2.47;2.28;;;3.10;98.70;;;;;;5072609;28;20219;-81
2020/12/30 05:42:48;;;;;;;2.42;2.20;;;2.90;98.70;;;;;;5078296;28;20277;-81
2020/12/30 05:45:18;;;;;;;1.80;1.70;;;3.00;99.00;;;;;;5090940;28;20213;-81
2020/12/30 05:47:45;;;;;;;2.60;1.50;;;3.20;99.10;;;;;;5085956;28;20191;-81
2020/12/30 05:50:12;;;;;;;2.03;1.90;;;3.30;98.90;;;;;;5073649;28;20206;-81
2020/12/30 05:52:40;;;;;;;1.95;1.85;;;3.20;98.60;;;;;;5075524;28;20195;-81
2020/12/30 05:55:09;;;;;;;2.95;2.30;;;3.30;99.00;;;;;;5078358;28;20560;-81
2020/12/30 05:57:36;;;;;;;2.88;2.00;;;3.40;98.70;;;;;;5090655;28;20191;-81
2020/12/30 06:00:06;;;;;;;2.58;2.38;;;3.40;98.70;;;;;;5070963;28;20220;-81
2020/12/30 06:02:33;;;;;;;2.03;1.92;;;3.50;98.50;;;;;;5092048;28;20226;-81
2020/12/30 06:05:15;;;;;;;2.30;2.10;;;3.50;98.40;;;;;;5091623;28;20186;-81
2020/12/30 06:07:43;;;;;;;2.30;2.10;;;3.60;98.40;;;;;;5091230;28;20194;-82
2020/12/30 06:10:13;;;;;;;2.60;1.92;;;3.50;98.20;;;;;;5093269;28;20202;-82
2020/12/30 06:12:49;;;;;;;2.50;2.30;;;3.50;98.30;;;;;;5093975;28;20223;-81
2020/12/30 06:15:17;;;;;;;1.85;1.75;;;3.60;98.10;;;;;;5074571;28;20690;-81
2020/12/30 06:17:55;;;;;;;3.20;2.22;;;3.60;98.00;;;;;;5089483;28;20195;-81
2020/12/30 06:20:24;;;;;;;3.28;2.15;;;3.50;97.80;;;;;;5086063;28;20226;-81
2020/12/30 06:22:57;;;;;;;2.70;2.10;;;3.50;98.10;;;;;;5092400;28;20198;-81
2020/12/30 06:25:27;;;;;;;2.85;2.58;;;3.60;98.10;;;;;;5083864;28;20191;-83
2020/12/30 06:27:55;;;;;;;2.60;2.40;;;3.60;97.80;;;;;;5073015;28;20268;-81
2020/12/30 06:30:22;;;;;;;2.70;2.50;;;3.30;97.70;;;;;;5092042;28;20207;-81
2020/12/30 06:32:49;;;;;;;3.65;2.95;;;3.30;98.40;;;;;;5090241;28;20206;-81
2020/12/30 06:35:25;;;;;;;4.20;2.72;;;3.30;98.30;;;;;;5078873;28;20705;-81
2020/12/30 06:37:51;;;;;;;4.35;2.67;;;3.30;98.40;;;;;;5089250;28;20986;-81
2020/12/30 06:40:24;;;;;;;2.97;2.70;;;3.30;98.10;;;;;;5091813;28;20745;-81
2020/12/30 06:42:55;;;;;;;2.38;2.22;;;3.20;98.20;;;;;;5086582;28;20697;-81
2020/12/30 06:45:50;;;;;;;2.65;2.50;;;3.10;98.40;;;;;;5076832;28;20235;-81
2020/12/30 06:48:17;;;;;;;3.17;2.90;;;3.20;98.70;;;;;;5072855;28;20203;-81
2020/12/30 06:50:44;;;;;;;3.58;2.90;;;3.10;98.70;;;;;;5090319;28;20269;-81
2020/12/30 06:53:30;;;;;;;3.90;2.70;;;3.30;98.80;;;;;;5086010;28;20233;-81
2020/12/30 06:55:58;;;;;;;5.03;3.00;;;3.30;98.60;;;;;;5079559;28;20228;-82
2020/12/30 06:58:44;;;;;;;2.90;2.70;;;3.40;98.50;;;;;;5071386;28;20191;-82
2020/12/30 07:01:11;;;;;;;4.10;3.00;;;3.30;98.20;;;;;;5084956;28;20222;-81
2020/12/30 07:03:37;;;;;;;2.80;2.40;;;3.40;98.50;;;;;;5081162;28;20636;-82
2020/12/30 07:06:24;;;;;;;2.40;2.20;;;3.50;98.50;;;;;;5085487;28;20756;-81
2020/12/30 07:08:52;;;;;;;3.65;3.10;;;3.60;98.30;;;;;;5083904;28;20199;-82
2020/12/30 07:11:52;;;;;;;6.25;3.38;;;3.60;98.10;;;;;;5072681;28;20249;-82
2020/12/30 07:14:21;;;;;;;3.40;3.00;;;3.60;97.90;;;;;;5095801;28;20199;-83
2020/12/30 07:16:50;;;;;;;2.40;2.20;;;3.70;98.20;;;;;;5121663;27;20206;-84
2020/12/30 07:19:19;;;;;;;3.38;2.70;;;3.70;97.90;;;;;;5074283;28;20656;-84
2020/12/30 07:22:03;;;;;;;4.40;2.60;;;3.70;97.70;;;;;;5086751;28;20190;-84
2020/12/30 07:24:36;;;;;;;2.90;2.70;;;3.70;97.70;;;;;;5077358;28;20203;-83
2020/12/30 07:27:04;;;;;;;3.15;2.83;;;3.60;97.80;;;;;;5090020;28;20709;-84
2020/12/30 07:29:31;;;;;;;2.65;2.45;;;3.50;97.90;;;;;;5090141;28;20205;-85
2020/12/30 07:32:01;;;;;;;5.82;3.30;;;3.50;97.90;;;;;;5090553;28;20199;-83
2020/12/30 07:34:29;;;;;;;3.15;2.53;;;3.40;98.00;;;;;;5074886;28;20202;-84
2020/12/30 07:36:56;;;;;;;3.60;3.30;;;3.40;98.00;;;;;;5070118;28;20657;-84
2020/12/30 07:39:28;;;;;;;3.05;2.47;;;3.30;98.10;;;;;;5085553;28;20195;-85
2020/12/30 07:41:54;;;;;;;4.28;2.47;;;3.20;98.30;;;;;;5073136;28;20192;-84
2020/12/30 07:44:21;;;;;;;2.90;2.70;;;3.10;98.60;;;;;;5084148;28;20195;-84
2020/12/30 07:46:52;;;;;;;4.05;3.15;;;3.10;98.50;;;;;;5081950;28;20206;-84
2020/12/30 07:49:21;;;;;;;2.60;2.40;;;3.00;98.90;;;;;;5082561;28;20642;-84
2020/12/30 07:51:49;;;;;;;4.20;3.35;;;3.20;99.00;;;;;;5081474;28;20256;-84
2020/12/30 07:54:17;;;;;;;3.28;2.97;;;3.30;98.70;;;;;;5084983;28;20195;-84
2020/12/30 07:56:43;;;;;;;3.85;2.38;;;3.50;98.70;;;;;;5090513;28;20741;-85
2020/12/30 07:59:10;;;;;;;4.95;2.45;;;3.60;98.30;;;;;;5087350;28;20203;-85
2020/12/30 08:01:37;;;;;;;4.40;3.15;;;3.70;98.10;;;;;;5080463;28;20578;-84
2020/12/30 08:04:08;;;;;;;2.75;2.55;;;3.90;98.00;;;;;;5082858;28;20656;-85
2020/12/30 08:06:44;;;;;;;2.53;2.33;;;3.90;97.40;;;;;;5093623;28;20210;-85
2020/12/30 08:09:11;;;;;;;6.07;2.45;;;3.90;97.30;;;;;;5084200;28;20265;-85
2020/12/30 08:11:50;;;;;;;3.10;2.78;;;3.90;97.50;;;;;;5100032;28;20209;-84
2020/12/30 08:14:18;;;;;;;2.30;2.08;;;3.90;97.30;;;;;;5091546;28;20228;-85
2020/12/30 08:16:51;;;;;;;3.13;2.83;;;3.80;97.40;;;;;;5073450;28;20199;-85
2020/12/30 08:19:29;;;;;;;4.13;3.35;;;3.90;97.50;;;;;;5084715;28;20206;-85
2020/12/30 08:22:01;;;;;;;3.15;2.85;;;3.90;97.30;;;;;;5086210;28;20203;-85
2020/12/30 08:24:29;;;;;;;5.88;3.13;;;3.70;97.20;;;;;;5088873;28;20660;-85
2020/12/30 08:26:56;;;;;;;3.22;2.85;;;3.80;97.40;;;;;;5075689;28;20236;-84
2020/12/30 08:29:22;;;;;;;2.92;2.35;;;3.90;97.30;;;;;;5076698;28;20655;-85
2020/12/30 08:31:56;;;;;;;2.60;2.40;;;4.00;97.30;;;;;;5084707;28;20198;-85
2020/12/30 08:34:27;;;;;;;2.85;2.65;;;4.10;97.20;;;;;;5078898;28;20199;-85
2020/12/30 08:37:04;;;;;;;4.97;3.45;;;4.20;97.10;;;;;;5073486;28;20594;-84
2020/12/30 08:39:31;;;;;;;3.88;2.58;;;4.20;96.90;;;;;;5086493;28;20782;-85
2020/12/30 08:42:00;;;;;;;2.70;2.50;;;4.20;96.80;;;;;;5091633;28;20219;-84
2020/12/30 08:44:27;;;;;;;3.03;2.70;;;4.00;96.70;;;;;;5079076;28;20248;-84
2020/12/30 08:46:57;;;;;;;2.65;2.45;;;4.20;96.90;;;;;;5081876;28;20194;-83
2020/12/30 08:49:25;;;;;;;2.75;2.55;;;4.30;96.80;;;;;;5091696;28;20210;-83
2020/12/30 08:51:52;;;;;;;2.17;2.00;;;4.40;96.90;;;;;;5081172;28;20245;-83
2020/12/30 08:54:19;;;;;;;3.15;2.20;;;4.40;96.20;;;;;;5075775;28;20196;-83
2020/12/30 08:56:47;;;;;;;2.85;2.55;;;4.50;96.30;;;;;;5085420;28;20224;-83
2020/12/30 08:59:23;;;;;;;3.00;2.58;;;4.70;96.20;;;;;;5088116;28;20268;-83
2020/12/30 09:01:50;;;;;;;2.90;2.00;;;5.10;96.00;;;;;;5094164;28;20194;-83
2020/12/30 09:04:16;;;;;;;2.70;2.50;;;4.70;95.70;;;;;;5088355;28;20233;-83
2020/12/30 09:06:50;;;;;;;2.30;2.10;;;4.60;95.40;;;;;;5093238;28;20958;-83
2020/12/30 09:09:19;;;;;;;2.83;2.40;;;4.60;95.60;;;;;;5079706;28;20303;-83
2020/12/30 09:11:48;;;;;;;3.25;2.95;;;4.70;95.60;;;;;;5078372;28;20229;-83
2020/12/30 09:14:16;;;;;;;4.20;2.35;;;4.30;94.80;;;;;;5091887;28;20507;-83
2020/12/30 09:16:56;;;;;;;3.17;2.88;;;4.40;95.60;;;;;;5073027;28;20238;-83
2020/12/30 09:19:22;;;;;;;3.15;2.35;;;4.40;95.50;;;;;;5089437;28;20203;-83
2020/12/30 09:21:49;;;;;;;3.65;2.00;;;4.60;95.80;;;;;;5081888;28;20588;-83
2020/12/30 09:24:16;;;;;;;2.70;2.10;;;4.60;95.30;;;;;;5091949;28;20675;-83
2020/12/30 09:26:43;;;;;;;3.33;2.13;;;4.50;95.30;;;;;;5078883;28;20194;-83
2020/12/30 09:29:18;;;;;;;2.38;2.17;;;4.70;95.50;;;;;;5083189;28;20278;-83
2020/12/30 09:31:52;;;;;;;2.17;1.98;;;4.80;95.10;;;;;;5092363;28;20213;-83
2020/12/30 09:34:18;;;;;;;1.95;1.85;;;4.90;95.00;;;;;;5085522;28;20289;-83
2020/12/30 09:36:55;;;;;;;2.05;1.85;;;5.00;95.10;;;;;;5083893;28;20211;-84
2020/12/30 09:39:22;;;;;;;2.38;1.67;;;5.10;95.00;;;;;;5089819;28;20194;-85
2020/12/30 09:41:49;;;;;;;2.15;1.95;;;5.10;94.90;;;;;;5089712;28;20223;-83
2020/12/30 09:44:18;;;;;;;3.53;2.47;;;5.10;94.80;;;;;;5090623;28;20187;-84
2020/12/30 09:46:55;;;;;;;2.75;2.33;;;5.00;94.70;;;;;;5091110;28;20195;-84
2020/12/30 09:49:22;;;;;;;2.78;1.85;;;5.10;95.00;;;;;;5088578;28;20210;-85
2020/12/30 09:51:54;;;;;;;2.03;1.75;;;5.10;94.80;;;;;;5091735;28;20215;-85
2020/12/30 09:54:20;;;;;;;2.03;1.92;;;4.90;94.20;;;;;;5078356;28;20190;-84
2020/12/30 09:56:49;;;;;;;2.60;2.40;;;5.10;94.70;;;;;;5069246;28;20244;-84
2020/12/30 09:59:20;;;;;;;2.08;1.88;;;5.10;94.60;;;;;;5084411;28;20236;-85
2020/12/30 10:01:48;;;;;;;1.98;1.70;;;5.10;94.10;;;;;;5079006;28;20230;-84
2020/12/30 10:04:18;;;;;;;1.75;1.65;;;5.00;94.80;;;;;;5079789;28;20194;-84
2020/12/30 10:06:47;;;;;;;1.80;1.70;;;5.20;94.90;;;;;;5082872;28;20618;-85
2020/12/30 10:09:14;;;;;;;2.05;1.88;;;5.20;94.50;;;;;;5081073;28;20191;-85
2020/12/30 10:11:50;;;;;;;3.25;2.45;;;5.10;94.30;;;;;;5079612;28;20222;-85
2020/12/30 10:14:20;;;;;;;2.45;2.25;;;5.30;94.70;;;;;;5082861;28;20198;-86
2020/12/30 10:16:50;;;;;;;2.50;2.20;;;5.40;94.40;;;;;;5083978;28;20748;-84
2020/12/30 10:19:17;;;;;;;2.30;2.10;;;5.50;94.20;;;;;;5085075;28;20217;-85
2020/12/30 10:21:44;;;;;;;2.30;2.10;;;5.50;94.10;;;;;;5075552;28;20230;-86
2020/12/30 10:24:10;;;;;;;2.63;2.30;;;5.60;94.00;;;;;;5085405;28;20727;-84
2020/12/30 10:26:37;;;;;;;3.42;2.50;;;5.80;93.90;;;;;;5088893;28;20187;-84
2020/12/30 10:29:03;;;;;;;3.85;3.50;;;5.70;93.40;;;;;;5085560;28;20198;-84
2020/12/30 10:31:30;;;;;;;4.35;2.30;;;5.50;93.80;;;;;;5078341;28;20680;-84
2020/12/30 10:33:56;;;;;;;2.40;2.20;;;5.60;93.70;;;;;;5082631;28;20690;-84
2020/12/30 10:36:29;;;;;;;2.65;2.28;;;5.70;93.80;;;;;;5079427;28;20199;-84
2020/12/30 10:38:56;;;;;;;6.90;6.32;;;5.80;93.30;;;;;;5084620;28;20202;-83
2020/12/30 10:41:23;;;;;;;4.57;3.25;;;5.50;93.10;;;;;;5083340;28;20303;-83
2020/12/30 10:43:50;;;;;;;4.90;3.00;;;5.70;93.70;;;;;;5083877;28;20209;-85
2020/12/30 10:46:17;;;;;;;3.22;2.85;;;5.80;93.90;;;;;;5074210;28;20249;-84
2020/12/30 10:48:44;;;;;;;3.75;3.35;;;6.20;93.40;;;;;;5084647;28;20120;-84
2020/12/30 10:51:11;;;;;;;4.85;3.58;;;5.70;92.20;;;;;;5089462;28;20729;-84
2020/12/30 10:53:38;;;;;;;3.88;2.72;;;5.70;92.30;;;;;;5087134;28;20527;-84
2020/12/30 10:56:05;;;;;;;2.58;2.38;;;5.90;92.80;;;;;;5075373;28;20195;-84
2020/12/30 10:58:31;;;;;;;3.25;2.08;;;5.60;92.70;;;;;;5077769;28;20226;-84
2020/12/30 11:00:58;;;;;;;1.95;1.52;;;6.10;93.30;;;;;;5087524;28;20218;-84
2020/12/30 11:03:24;;;;;;;3.00;2.13;;;6.20;92.40;;;;;;5084300;28;20268;-83
2020/12/30 11:05:50;;;;;;;3.10;1.55;;;6.30;92.60;;;;;;5089303;28;20202;-83
2020/12/30 11:08:17;;;;;;;3.10;1.48;;;6.30;92.50;;;;;;5085789;28;20264;-83
2020/12/30 11:10:44;;;;;;;2.42;1.70;;;6.30;92.20;;;;;;5087074;28;20206;-84
2020/12/30 11:13:11;;;;;;;2.15;1.95;;;6.50;92.60;;;;;;5087917;28;20675;-84
2020/12/30 11:15:37;;;;;;;2.30;1.25;;;6.50;92.40;;;;;;5069005;28;20195;-84
2020/12/30 11:18:04;;;;;;;2.28;1.45;;;6.50;92.30;;;;;;5070905;28;20226;-84
2020/12/30 11:20:31;;;;;;;1.40;1.30;;;6.00;92.00;;;;;;5085508;28;20222;-84
2020/12/30 11:22:59;;;;;;;2.83;2.60;;;5.70;92.30;;;;;;5086438;28;20239;-84
2020/12/30 11:25:26;;;;;;;2.65;2.08;;;5.90;93.10;;;;;;5088749;28;20528;-83
2020/12/30 11:28:07;;;;;;;6.55;2.58;;;6.10;92.50;;;;;;5084618;28;20250;-83
2020/12/30 11:30:34;;;;;;;2.33;2.13;;;5.70;92.20;;;;;;5084623;28;20214;-82
2020/12/30 11:33:10;;;;;;;1.85;1.73;;;5.70;93.10;;;;;;5077319;28;20199;-83
2020/12/30 11:35:39;;;;;;;1.80;1.50;;;6.00;93.80;;;;;;5083046;28;20648;-83
2020/12/30 11:38:05;;;;;;;2.75;2.53;;;6.00;92.60;;;;;;5087379;28;20210;-83
2020/12/30 11:40:32;;;;;;;2.20;2.08;;;6.20;92.20;;;;;;5087296;28;20304;-82
2020/12/30 11:43:25;;;;;;;1.90;1.80;;;6.20;92.80;;;;;;5083623;28;20279;-84
2020/12/30 11:46:06;;;;;;;3.35;2.25;;;6.50;92.80;;;;;;5085911;28;20198;-84
2020/12/30 11:48:41;;;;;;;2.75;2.40;;;6.60;92.20;;;;;;5080555;28;20249;-83
2020/12/30 11:51:08;;;;;;;2.50;2.30;;;6.60;92.40;;;;;;5087526;28;20209;-83
2020/12/30 11:53:35;;;;;;;1.80;1.70;;;6.20;91.90;;;;;;5088249;28;20731;-83
2020/12/30 11:56:02;;;;;;;1.50;1.40;;;6.20;92.10;;;;;;5087699;28;20214;-84
2020/12/30 11:58:32;;;;;;;2.25;1.90;;;6.20;92.80;;;;;;5078955;28;20672;-83
2020/12/30 12:00:59;;;;;;;3.55;1.95;;;6.20;92.50;;;;;;5079391;28;20227;-84
2020/12/30 12:03:25;;;;;;;2.83;1.77;;;6.10;92.30;;;;;;5079316;28;20227;-84
2020/12/30 12:05:51;;;;;;;1.40;1.27;;;6.00;92.10;;;;;;5084187;28;20634;-82
2020/12/30 12:08:18;;;;;;;1.30;1.20;;;6.00;92.90;;;;;;5085652;28;21199;-83
2020/12/30 12:10:44;;;;;;;1.50;1.40;;;6.20;93.40;;;;;;5080958;28;20249;-83
2020/12/30 12:13:11;;;;;;;1.70;1.60;;;6.20;92.50;;;;;;5086472;28;20187;-83
2020/12/30 12:15:38;;;;;;;1.70;1.60;;;6.50;93.10;;;;;;5092524;28;20198;-84
2020/12/30 12:18:05;;;;;;;1.85;1.60;;;6.60;92.90;;;;;;5091937;28;20206;-83
2020/12/30 12:20:31;;;;;;;2.00;1.90;;;6.60;92.70;;;;;;5109485;28;20232;-83
2020/12/30 12:22:58;;;;;;;1.80;1.70;;;6.60;93.00;;;;;;5095280;28;20207;-83
2020/12/30 12:25:24;;;;;;;2.03;1.77;;;6.10;92.10;;;;;;5083737;28;20253;-83
2020/12/30 12:27:50;;;;;;;2.17;1.50;;;6.20;93.30;;;;;;5073439;28;20631;-82
2020/12/30 12:30:17;;;;;;;2.30;2.10;;;6.20;93.00;;;;;;5072281;28;20218;-83
2020/12/30 12:32:45;;;;;;;2.88;1.80;;;6.30;93.30;;;;;;5071410;28;20264;-82
2020/12/30 12:35:11;;;;;;;3.13;1.83;;;6.60;93.20;;;;;;5075004;28;20191;-83
2020/12/30 12:37:38;;;;;;;3.90;1.90;;;6.50;93.40;;;;;;5071854;28;20677;-83
2020/12/30 12:40:04;;;;;;;1.60;1.50;;;6.70;93.30;;;;;;5082868;28;20707;-83
2020/12/30 12:42:31;;;;;;;2.00;1.90;;;6.60;92.90;;;;;;5092668;28;20235;-83
2020/12/30 12:44:57;;;;;;;1.35;1.25;;;6.70;93.00;;;;;;5085917;28;20671;-84
2020/12/30 12:47:23;;;;;;;2.13;1.92;;;6.60;92.90;;;;;;5074873;28;20201;-83
2020/12/30 12:49:51;;;;;;;1.60;1.50;;;6.80;93.10;;;;;;5089059;28;20194;-83
2020/12/30 12:52:17;;;;;;;1.65;1.48;;;6.80;92.80;;;;;;5091418;28;20210;-83
2020/12/30 12:54:43;;;;;;;3.05;2.10;;;6.90;92.90;;;;;;5073427;28;20227;-83
2020/12/30 12:57:10;;;;;;;3.28;1.63;;;7.00;92.90;;;;;;5072495;28;20246;-83
2020/12/30 12:59:36;;;;;;;1.92;1.73;;;7.10;92.70;;;;;;5086656;28;20277;-83
2020/12/30 13:02:03;;;;;;;2.55;2.35;;;7.00;92.10;;;;;;5091102;28;20267;-83
2020/12/30 13:04:30;;;;;;;2.65;2.45;;;6.90;92.50;;;;;;5091147;28;20281;-83